This is the latest recevied weather packets stored in our database for station/object W8CWV-13. If no packets are shown the sender has not sent any weather packets the latest 10 day(s).
| Time | Temp. | Humidity | Pressure | Rain* | Wind** | Luminosity | Snow |
|---|---|---|---|---|---|---|---|
| 1777753036 | 14.44° C | 100% | 1020.1 hPa | - | - | - | - |
| 1777752463 | 13.89° C | 100% | 1020.4 hPa | - | - | - | - |
| 1777751888 | 14.44° C | 100% | 1020.2 hPa | - | - | - | - |
| 1777751312 | 13.89° C | 100% | 1020.5 hPa | - | - | - | - |
| 1777750739 | 13.33° C | 100% | 1020.7 hPa | - | - | - | - |
| 1777750164 | 15° C | 100% | 1020.6 hPa | - | - | - | - |
| 1777749587 | 15.56° C | 100% | 1020.8 hPa | - | - | - | - |
| 1777749022 | 15° C | 100% | 1021.1 hPa | - | - | - | - |
| 1777748440 | 14.44° C | 100% | 1021 hPa | - | - | - | - |
| 1777747873 | 15° C | 100% | 1021.2 hPa | - | - | - | - |
| 1777747299 | 16.11° C | 100% | 1021.1 hPa | - | - | - | - |
| 1777746724 | 14.44° C | 100% | 1021.2 hPa | - | - | - | - |
| 1777746146 | 13.33° C | 100% | 1021.2 hPa | - | - | - | - |
| 1777745573 | 12.78° C | 100% | 1021.4 hPa | - | - | - | - |
| 1777745003 | 12.78° C | 100% | 1021.5 hPa | - | - | - | - |
| 1777744429 | 13.33° C | 100% | 1021.5 hPa | - | - | - | - |
| 1777743862 | 13.33° C | 100% | 1021.6 hPa | - | - | - | - |
| 1777743285 | 12.78° C | 100% | 1021.7 hPa | - | - | - | - |
| 1777742714 | 13.89° C | 100% | 1021.4 hPa | - | - | - | - |
| 1777742141 | 14.44° C | 100% | 1021.6 hPa | - | - | - | - |
| 1777741570 | 15° C | 100% | 1021.2 hPa | - | - | - | - |
| 1777740996 | 13.89° C | 100% | 1021.7 hPa | - | - | - | - |
| 1777740423 | 13.89° C | 100% | 1021.2 hPa | - | - | - | - |
| 1777739849 | 12.78° C | 100% | 1021.5 hPa | - | - | - | - |
| 1777739271 | 12.22° C | 100% | 1021.7 hPa | - | - | - | - |
* Rain since midnight (hover to see other rain measurements)
** Current wind speed in m/s (hover to see current wind gust speed)